Time;durP1;ratioP1;P1;durP2;ratioP2;P2;SDS_P1;SDS_P2;PMS_P1;PMS_P2;Temp;Humidity;BMP_temperature;BMP_pressure;BME280_temperature;BME280_humidity;BME280_pressure;Samples;Min_cycle;Max_cycle;Signal;HPM_P1;HPM_P2
2021/10/24 00:02:05;;;;;;;11.43;6.82;;;;;;;;;;5064371;28;20532;-53
2021/10/24 00:04:31;;;;;;;18.35;8.48;;;;;;;;;;5064963;28;20093;-54
2021/10/24 00:06:56;;;;;;;12.90;6.72;;;;;;;;;;5063398;28;20047;-52
2021/10/24 00:09:22;;;;;;;9.05;4.30;;;;;;;;;;5066561;28;20035;-54
2021/10/24 00:11:47;;;;;;;10.07;4.60;;;;;;;;;;5063924;28;20032;-53
2021/10/24 00:14:12;;;;;;;9.48;4.47;;;;;;;;;;5064620;28;20025;-53
2021/10/24 00:16:38;;;;;;;8.75;4.00;;;;;;;;;;5061699;28;20032;-56
2021/10/24 00:19:04;;;;;;;13.13;4.32;;;;;;;;;;5067488;28;20020;-54
2021/10/24 00:21:30;;;;;;;11.02;4.25;;;;;;;;;;5064644;28;20055;-52
2021/10/24 00:23:56;;;;;;;8.68;4.00;;;;;;;;;;5064118;28;20552;-54
2021/10/24 00:26:23;;;;;;;8.43;4.32;;;;;;;;;;5067796;28;20024;-51
2021/10/24 00:28:48;;;;;;;8.60;4.40;;;;;;;;;;5062929;28;20028;-55
2021/10/24 00:31:14;;;;;;;11.05;4.43;;;;;;;;;;5063770;28;20027;-51
2021/10/24 00:33:39;;;;;;;7.55;4.03;;;;;;;;;;5067560;28;20066;-54
2021/10/24 00:36:04;;;;;;;9.27;4.32;;;;;;;;;;5063068;28;20099;-53
2021/10/24 00:38:30;;;;;;;9.95;4.70;;;;;;;;;;5060976;28;20035;-53
2021/10/24 00:40:55;;;;;;;9.25;4.55;;;;;;;;;;5065672;28;20119;-52
2021/10/24 00:43:21;;;;;;;10.48;4.70;;;;;;;;;;5065163;28;20402;-53
2021/10/24 00:45:46;;;;;;;9.82;4.50;;;;;;;;;;5065879;28;20047;-52
2021/10/24 00:48:11;;;;;;;9.00;4.30;;;;;;;;;;5063887;28;20570;-53
2021/10/24 00:50:37;;;;;;;13.85;5.13;;;;;;;;;;5067936;28;20017;-51
2021/10/24 00:53:06;;;;;;;11.77;5.30;;;;;;;;;;5064003;28;20036;-50
2021/10/24 00:55:31;;;;;;;14.38;5.47;;;;;;;;;;5065956;28;20461;-52
2021/10/24 00:57:57;;;;;;;11.50;5.15;;;;;;;;;;5067374;28;20468;-52
2021/10/24 01:00:23;;;;;;;8.45;4.65;;;;;;;;;;5067995;28;20509;-52
2021/10/24 01:02:48;;;;;;;11.63;5.10;;;;;;;;;;5068503;28;20027;-51
2021/10/24 01:05:15;;;;;;;12.35;4.82;;;;;;;;;;5068187;28;20027;-52
2021/10/24 01:07:48;;;;;;;12.02;5.50;;;;;;;;;;5067779;28;20024;-52
2021/10/24 01:10:17;;;;;;;8.27;4.68;;;;;;;;;;5066644;28;20025;-54
2021/10/24 01:12:48;;;;;;;9.60;4.82;;;;;;;;;;5067438;28;20028;-53
2021/10/24 01:15:15;;;;;;;11.98;5.55;;;;;;;;;;5067264;28;20029;-51
2021/10/24 01:17:41;;;;;;;15.68;5.30;;;;;;;;;;5066627;28;20058;-51
2021/10/24 01:20:08;;;;;;;12.18;5.10;;;;;;;;;;5065494;28;20028;-51
2021/10/24 01:22:37;;;;;;;11.63;4.97;;;;;;;;;;5066663;28;20032;-54
2021/10/24 01:25:06;;;;;;;16.20;5.30;;;;;;;;;;5071307;28;20395;-51
2021/10/24 01:27:31;;;;;;;13.20;5.03;;;;;;;;;;5066337;28;20522;-51
2021/10/24 01:29:59;;;;;;;13.52;5.95;;;;;;;;;;5068198;28;20016;-52
2021/10/24 01:32:25;;;;;;;11.35;5.90;;;;;;;;;;5067982;28;20390;-53
2021/10/24 01:34:51;;;;;;;13.80;5.95;;;;;;;;;;5066948;28;20029;-53
2021/10/24 01:37:17;;;;;;;14.30;6.18;;;;;;;;;;5063576;28;20028;-51
2021/10/24 01:39:42;;;;;;;15.40;5.65;;;;;;;;;;5070247;28;20038;-52
2021/10/24 01:42:08;;;;;;;15.80;6.07;;;;;;;;;;5068538;28;20021;-52
2021/10/24 01:44:34;;;;;;;10.63;5.30;;;;;;;;;;5065117;28;20536;-50
2021/10/24 01:46:59;;;;;;;8.80;4.55;;;;;;;;;;5070209;28;20064;-51
2021/10/24 01:49:24;;;;;;;11.07;4.68;;;;;;;;;;5068871;28;20030;-54
2021/10/24 01:51:50;;;;;;;8.55;3.95;;;;;;;;;;5066976;28;20098;-51
2021/10/24 01:54:16;;;;;;;9.80;4.65;;;;;;;;;;5069392;28;20027;-52
2021/10/24 01:56:43;;;;;;;10.40;5.07;;;;;;;;;;5068240;28;20478;-54
2021/10/24 01:59:08;;;;;;;11.80;5.32;;;;;;;;;;5068171;28;20547;-51
2021/10/24 02:01:34;;;;;;;11.55;5.55;;;;;;;;;;5066434;28;20040;-52
2021/10/24 02:03:59;;;;;;;11.48;5.40;;;;;;;;;;5068294;28;20482;-52
2021/10/24 02:06:25;;;;;;;15.25;6.00;;;;;;;;;;5064512;28;20410;-54
2021/10/24 02:08:50;;;;;;;11.45;5.78;;;;;;;;;;5070092;28;20282;-55
2021/10/24 02:11:15;;;;;;;15.73;5.57;;;;;;;;;;5068980;28;20494;-52
2021/10/24 02:13:41;;;;;;;10.30;5.13;;;;;;;;;;5062788;28;20410;-54
2021/10/24 02:16:06;;;;;;;14.95;6.20;;;;;;;;;;5062326;28;20427;-52
2021/10/24 02:18:32;;;;;;;11.82;6.18;;;;;;;;;;5068523;28;20044;-51
2021/10/24 02:20:57;;;;;;;14.65;6.43;;;;;;;;;;5064734;28;20031;-52
2021/10/24 02:23:22;;;;;;;12.20;6.20;;;;;;;;;;5065126;28;20039;-51
2021/10/24 02:25:48;;;;;;;12.07;5.72;;;;;;;;;;5066418;28;20036;-51
2021/10/24 02:28:13;;;;;;;13.93;5.97;;;;;;;;;;5066943;28;20554;-52
2021/10/24 02:30:39;;;;;;;13.75;5.78;;;;;;;;;;5064343;28;20081;-53
2021/10/24 02:33:05;;;;;;;12.82;5.75;;;;;;;;;;5065963;28;20054;-54
2021/10/24 02:35:30;;;;;;;15.90;6.28;;;;;;;;;;5068273;28;20091;-53
2021/10/24 02:37:56;;;;;;;13.38;6.13;;;;;;;;;;5065815;28;20071;-51
2021/10/24 02:40:22;;;;;;;9.82;5.93;;;;;;;;;;5066905;28;20036;-52
2021/10/24 02:42:49;;;;;;;11.13;5.63;;;;;;;;;;5067126;28;20035;-53
2021/10/24 02:45:14;;;;;;;13.93;6.57;;;;;;;;;;5064346;28;20394;-51
2021/10/24 02:47:40;;;;;;;11.43;5.93;;;;;;;;;;5062916;28;20032;-54
2021/10/24 02:50:06;;;;;;;13.23;5.38;;;;;;;;;;5068396;28;20166;-53
2021/10/24 02:52:32;;;;;;;11.90;5.43;;;;;;;;;;5064439;28;20103;-55
2021/10/24 02:54:58;;;;;;;12.52;6.25;;;;;;;;;;5064850;28;20044;-54
2021/10/24 02:57:23;;;;;;;13.95;6.00;;;;;;;;;;5065537;28;20624;-54
2021/10/24 02:59:49;;;;;;;12.82;5.75;;;;;;;;;;5064897;28;20029;-54
2021/10/24 03:02:14;;;;;;;16.17;6.35;;;;;;;;;;5065789;28;20387;-52
2021/10/24 03:04:39;;;;;;;14.63;6.13;;;;;;;;;;5064712;28;20037;-55
2021/10/24 03:07:05;;;;;;;13.55;6.60;;;;;;;;;;5068893;28;20091;-53
2021/10/24 03:09:30;;;;;;;15.25;6.85;;;;;;;;;;5064013;28;20036;-54
2021/10/24 03:11:56;;;;;;;12.80;6.53;;;;;;;;;;5065669;28;20028;-54
2021/10/24 03:14:21;;;;;;;16.38;8.32;;;;;;;;;;5069109;28;20464;-54
2021/10/24 03:16:47;;;;;;;16.00;7.70;;;;;;;;;;5066002;28;20028;-54
2021/10/24 03:19:13;;;;;;;19.73;8.05;;;;;;;;;;5061395;28;20059;-53
2021/10/24 03:21:39;;;;;;;19.95;7.88;;;;;;;;;;5067440;28;20121;-53
2021/10/24 03:24:05;;;;;;;19.52;8.30;;;;;;;;;;5066526;28;20030;-55
2021/10/24 03:26:32;;;;;;;16.42;8.15;;;;;;;;;;5065190;28;20059;-51
2021/10/24 03:28:57;;;;;;;22.02;8.52;;;;;;;;;;5064808;28;20113;-52
2021/10/24 03:31:23;;;;;;;14.38;7.95;;;;;;;;;;5069794;28;20064;-53
2021/10/24 03:33:49;;;;;;;18.35;7.85;;;;;;;;;;5063665;28;20119;-54
2021/10/24 03:36:15;;;;;;;17.10;7.78;;;;;;;;;;5062319;28;20495;-52
2021/10/24 03:38:42;;;;;;;14.25;8.30;;;;;;;;;;5065633;28;20035;-53
2021/10/24 03:41:07;;;;;;;17.75;8.38;;;;;;;;;;5067430;28;20028;-52
2021/10/24 03:43:33;;;;;;;16.40;8.15;;;;;;;;;;5064595;28;20036;-54
2021/10/24 03:45:58;;;;;;;17.08;8.20;;;;;;;;;;5065268;28;20033;-54
2021/10/24 03:48:24;;;;;;;13.63;7.57;;;;;;;;;;5067044;28;20409;-55
2021/10/24 03:50:50;;;;;;;17.40;8.57;;;;;;;;;;5064273;28;20042;-52
2021/10/24 03:53:15;;;;;;;15.82;8.02;;;;;;;;;;5066477;28;20039;-53
2021/10/24 03:55:41;;;;;;;17.38;8.48;;;;;;;;;;5074132;28;20024;-52
2021/10/24 03:58:06;;;;;;;14.60;8.20;;;;;;;;;;5064718;28;20099;-52
2021/10/24 04:00:32;;;;;;;16.00;7.78;;;;;;;;;;5063019;28;20062;-52
2021/10/24 04:03:05;;;;;;;20.23;9.00;;;;;;;;;;5065683;28;20043;-53
2021/10/24 04:05:31;;;;;;;19.45;8.75;;;;;;;;;;5067818;28;20047;-51
2021/10/24 04:07:56;;;;;;;18.73;9.05;;;;;;;;;;5060098;28;20452;-55
2021/10/24 04:10:24;;;;;;;19.80;9.35;;;;;;;;;;5066965;28;20021;-52
2021/10/24 04:12:50;;;;;;;20.35;9.68;;;;;;;;;;5062721;28;20036;-54
2021/10/24 04:15:17;;;;;;;19.17;9.02;;;;;;;;;;5064164;28;20016;-54
2021/10/24 04:17:43;;;;;;;25.23;9.32;;;;;;;;;;5062070;28;20029;-54
2021/10/24 04:20:12;;;;;;;20.63;8.77;;;;;;;;;;5064887;28;20036;-52
2021/10/24 04:22:39;;;;;;;20.13;9.70;;;;;;;;;;5060496;28;20537;-52
2021/10/24 04:25:07;;;;;;;21.33;9.73;;;;;;;;;;5065463;28;20024;-53
2021/10/24 04:27:33;;;;;;;17.63;8.40;;;;;;;;;;5065083;28;20021;-52
2021/10/24 04:29:59;;;;;;;17.17;8.85;;;;;;;;;;5064532;28;20105;-51
2021/10/24 04:32:25;;;;;;;18.90;8.70;;;;;;;;;;5065234;28;20029;-51
2021/10/24 04:34:50;;;;;;;14.80;6.82;;;;;;;;;;5065172;28;20033;-51
2021/10/24 04:37:16;;;;;;;11.98;6.40;;;;;;;;;;5060683;28;20082;-52
2021/10/24 04:39:41;;;;;;;14.90;6.38;;;;;;;;;;5063465;28;20028;-52
2021/10/24 04:42:06;;;;;;;11.80;6.25;;;;;;;;;;5064537;28;20540;-51
2021/10/24 04:44:32;;;;;;;12.70;6.40;;;;;;;;;;5065606;28;20441;-51
2021/10/24 04:46:57;;;;;;;14.45;7.43;;;;;;;;;;5064345;28;20099;-52
2021/10/24 04:49:23;;;;;;;16.02;7.18;;;;;;;;;;5064370;28;20558;-52
2021/10/24 04:51:49;;;;;;;15.02;7.00;;;;;;;;;;5064270;28;20028;-52
2021/10/24 04:54:15;;;;;;;21.20;7.60;;;;;;;;;;5062629;28;20523;-53
2021/10/24 04:56:40;;;;;;;14.35;6.25;;;;;;;;;;5064439;28;20063;-51
2021/10/24 04:59:06;;;;;;;17.38;7.40;;;;;;;;;;5065907;28;20016;-53
2021/10/24 05:01:31;;;;;;;13.85;6.95;;;;;;;;;;5062250;28;20453;-53
2021/10/24 05:03:56;;;;;;;14.07;7.10;;;;;;;;;;5066698;28;20400;-52
2021/10/24 05:06:22;;;;;;;15.63;6.65;;;;;;;;;;5062966;28;20035;-53
2021/10/24 05:08:47;;;;;;;13.35;6.70;;;;;;;;;;5061736;28;20676;-55
2021/10/24 05:11:13;;;;;;;17.50;8.30;;;;;;;;;;5061626;28;20028;-56
2021/10/24 05:13:39;;;;;;;11.93;6.43;;;;;;;;;;5064063;28;20024;-57
2021/10/24 05:16:05;;;;;;;14.25;6.25;;;;;;;;;;5063405;28;20427;-56
2021/10/24 05:18:30;;;;;;;12.15;5.53;;;;;;;;;;5061511;28;20037;-57
2021/10/24 05:20:56;;;;;;;14.20;5.18;;;;;;;;;;5063120;28;20597;-56
2021/10/24 05:23:21;;;;;;;12.95;5.95;;;;;;;;;;5064636;28;20023;-57
2021/10/24 05:25:46;;;;;;;14.10;5.47;;;;;;;;;;5064316;28;20415;-56
2021/10/24 05:28:12;;;;;;;15.48;6.22;;;;;;;;;;5061109;28;20135;-54
2021/10/24 05:30:37;;;;;;;15.75;5.82;;;;;;;;;;5067320;28;20017;-56
2021/10/24 05:33:02;;;;;;;10.70;5.55;;;;;;;;;;5062363;28;20031;-55
2021/10/24 05:35:28;;;;;;;10.85;5.53;;;;;;;;;;5059711;28;20032;-56
2021/10/24 05:37:53;;;;;;;14.75;6.32;;;;;;;;;;5065863;28;20070;-56
2021/10/24 05:40:19;;;;;;;14.23;5.82;;;;;;;;;;5061535;28;20024;-56
2021/10/24 05:42:44;;;;;;;12.73;5.82;;;;;;;;;;5061374;28;20112;-57
2021/10/24 05:45:10;;;;;;;14.40;5.65;;;;;;;;;;5064604;28;20074;-56
2021/10/24 05:47:36;;;;;;;12.77;5.50;;;;;;;;;;5067234;28;20177;-56
2021/10/24 05:50:01;;;;;;;12.65;5.97;;;;;;;;;;5067597;28;20032;-57
2021/10/24 05:52:27;;;;;;;13.15;6.15;;;;;;;;;;5067725;28;20125;-55
2021/10/24 05:54:53;;;;;;;9.43;4.82;;;;;;;;;;5066359;28;20028;-57
2021/10/24 05:57:19;;;;;;;11.32;5.43;;;;;;;;;;5065381;28;20035;-56
2021/10/24 05:59:44;;;;;;;13.13;5.97;;;;;;;;;;5065615;28;20377;-56
2021/10/24 06:02:10;;;;;;;14.70;5.93;;;;;;;;;;5068586;28;20089;-55
2021/10/24 06:04:38;;;;;;;12.68;6.93;;;;;;;;;;5067100;28;20027;-56
2021/10/24 06:07:04;;;;;;;14.45;6.90;;;;;;;;;;5062979;28;20095;-56
2021/10/24 06:12:45;;;;;;;19.10;7.78;;;;;;;;;;5025936;28;20065;-56
2021/10/24 06:15:13;;;;;;;20.67;9.85;;;;;;;;;;5067214;28;20058;-55
2021/10/24 06:17:38;;;;;;;20.75;10.15;;;;;;;;;;5065993;28;20032;-56
2021/10/24 06:20:07;;;;;;;24.50;9.07;;;;;;;;;;5069776;28;20081;-56
2021/10/24 06:22:32;;;;;;;19.52;8.60;;;;;;;;;;5066809;28;20016;-54
2021/10/24 06:24:58;;;;;;;19.77;9.23;;;;;;;;;;5067284;28;20494;-56
2021/10/24 06:27:23;;;;;;;17.65;8.38;;;;;;;;;;5066989;28;20044;-56
2021/10/24 06:29:49;;;;;;;15.48;7.22;;;;;;;;;;5066808;28;20028;-55
2021/10/24 06:32:14;;;;;;;13.07;6.80;;;;;;;;;;5066689;28;21175;-56
2021/10/24 06:34:39;;;;;;;14.90;7.95;;;;;;;;;;5064274;28;20403;-56
2021/10/24 06:37:05;;;;;;;14.98;7.03;;;;;;;;;;5066570;28;20782;-55
2021/10/24 06:39:31;;;;;;;21.15;8.40;;;;;;;;;;5065411;28;20040;-56
2021/10/24 06:41:56;;;;;;;19.00;7.57;;;;;;;;;;5064245;28;20564;-56
2021/10/24 06:44:22;;;;;;;14.48;7.03;;;;;;;;;;5065398;28;20035;-56
2021/10/24 06:46:47;;;;;;;15.23;7.30;;;;;;;;;;5065095;28;20487;-56
2021/10/24 06:49:12;;;;;;;15.20;7.25;;;;;;;;;;5064911;28;20500;-56
2021/10/24 06:51:38;;;;;;;16.20;6.65;;;;;;;;;;5065822;28;20423;-55
2021/10/24 06:54:04;;;;;;;14.18;6.50;;;;;;;;;;5063568;28;20459;-55
2021/10/24 06:56:29;;;;;;;24.63;8.73;;;;;;;;;;5062212;28;20524;-55
2021/10/24 06:58:55;;;;;;;18.20;9.10;;;;;;;;;;5061093;28;20025;-55
2021/10/24 07:01:20;;;;;;;18.90;7.47;;;;;;;;;;5063069;28;20039;-56
2021/10/24 07:03:46;;;;;;;17.45;7.00;;;;;;;;;;5062488;28;20096;-55
2021/10/24 07:06:11;;;;;;;20.92;9.90;;;;;;;;;;5063105;28;20549;-56
2021/10/24 07:08:37;;;;;;;21.27;10.10;;;;;;;;;;5066002;28;20035;-56
2021/10/24 07:11:02;;;;;;;36.53;15.18;;;;;;;;;;5063947;28;20029;-55
2021/10/24 07:13:27;;;;;;;20.83;9.65;;;;;;;;;;5061167;28;20106;-55
2021/10/24 07:15:53;;;;;;;22.52;11.15;;;;;;;;;;5067438;28;20386;-55
2021/10/24 07:18:18;;;;;;;24.13;11.60;;;;;;;;;;5059917;28;20089;-55
2021/10/24 07:20:44;;;;;;;34.22;15.05;;;;;;;;;;5065923;28;20032;-55
2021/10/24 07:23:09;;;;;;;18.10;8.45;;;;;;;;;;5066527;28;20024;-53
2021/10/24 07:25:35;;;;;;;23.60;9.50;;;;;;;;;;5065155;28;20551;-55
2021/10/24 07:28:00;;;;;;;18.95;8.52;;;;;;;;;;5064823;28;20051;-55
2021/10/24 07:30:26;;;;;;;20.67;9.43;;;;;;;;;;5065252;28;20020;-55
2021/10/24 07:32:52;;;;;;;17.00;8.88;;;;;;;;;;5064929;28;20050;-55
2021/10/24 07:35:18;;;;;;;18.55;9.05;;;;;;;;;;5062821;28;20024;-56
2021/10/24 07:37:43;;;;;;;16.75;8.32;;;;;;;;;;5066552;28;20505;-55
2021/10/24 07:40:10;;;;;;;15.85;8.85;;;;;;;;;;5064492;28;20120;-55
2021/10/24 07:42:37;;;;;;;21.25;9.32;;;;;;;;;;5065994;28;20043;-54
2021/10/24 07:45:03;;;;;;;22.35;11.85;;;;;;;;;;5061392;28;20075;-55
2021/10/24 07:47:30;;;;;;;23.83;12.40;;;;;;;;;;5065241;28;20451;-57
2021/10/24 07:50:00;;;;;;;25.27;14.25;;;;;;;;;;5064088;28;20518;-54
2021/10/24 07:52:25;;;;;;;36.95;18.08;;;;;;;;;;5063047;28;20036;-54
2021/10/24 07:54:51;;;;;;;34.33;17.20;;;;;;;;;;5063806;28;20398;-54
2021/10/24 07:57:18;;;;;;;36.33;17.05;;;;;;;;;;5061011;28;20024;-55
2021/10/24 07:59:43;;;;;;;29.85;14.95;;;;;;;;;;5062611;28;20035;-55
2021/10/24 08:02:10;;;;;;;25.77;13.68;;;;;;;;;;5063360;28;20360;-54
2021/10/24 08:04:35;;;;;;;30.30;14.10;;;;;;;;;;5066133;28;20051;-56
2021/10/24 08:07:03;;;;;;;25.85;14.10;;;;;;;;;;5057816;28;20143;-56
2021/10/24 08:09:29;;;;;;;31.92;14.38;;;;;;;;;;5062109;28;20036;-57
2021/10/24 08:11:55;;;;;;;28.92;13.93;;;;;;;;;;5067833;28;20024;-57
2021/10/24 08:14:20;;;;;;;34.15;16.77;;;;;;;;;;5062856;28;20024;-55
2021/10/24 08:16:46;;;;;;;40.67;19.23;;;;;;;;;;5063684;28;20438;-58
2021/10/24 08:19:13;;;;;;;43.63;24.20;;;;;;;;;;5063305;28;20107;-55
2021/10/24 08:21:38;;;;;;;38.55;19.67;;;;;;;;;;5061371;28;20566;-56
2021/10/24 08:24:05;;;;;;;28.17;15.77;;;;;;;;;;5064183;28;20180;-56
2021/10/24 08:26:31;;;;;;;26.60;14.88;;;;;;;;;;5065385;28;20029;-56
2021/10/24 08:28:57;;;;;;;25.83;15.00;;;;;;;;;;5066454;28;20107;-55
2021/10/24 08:31:26;;;;;;;22.75;14.57;;;;;;;;;;5063544;28;20190;-55
2021/10/24 08:33:53;;;;;;;23.75;13.90;;;;;;;;;;5063171;28;20083;-56
2021/10/24 08:36:19;;;;;;;27.60;13.05;;;;;;;;;;5065535;28;20080;-56
2021/10/24 08:38:44;;;;;;;22.20;12.30;;;;;;;;;;5074179;28;20024;-55
2021/10/24 08:41:11;;;;;;;21.88;12.38;;;;;;;;;;5060490;28;20071;-55
2021/10/24 08:43:38;;;;;;;14.00;7.78;;;;;;;;;;5063981;28;20506;-55
2021/10/24 08:46:05;;;;;;;18.77;8.75;;;;;;;;;;5065078;28;22562;-55
2021/10/24 08:48:33;;;;;;;16.85;9.70;;;;;;;;;;5062829;28;20033;-56
2021/10/24 08:50:59;;;;;;;17.27;8.55;;;;;;;;;;5062651;28;20033;-54
2021/10/24 08:53:27;;;;;;;20.40;7.75;;;;;;;;;;5063826;28;20252;-55
2021/10/24 08:55:54;;;;;;;15.75;8.50;;;;;;;;;;5062049;28;20035;-58
2021/10/24 08:58:20;;;;;;;13.45;8.75;;;;;;;;;;5063194;28;20037;-57
2021/10/24 09:00:48;;;;;;;13.98;8.05;;;;;;;;;;5063658;28;20115;-56
2021/10/24 09:03:13;;;;;;;17.90;8.90;;;;;;;;;;5065762;28;20032;-57
2021/10/24 09:05:41;;;;;;;17.40;9.10;;;;;;;;;;5070954;28;20039;-57
2021/10/24 09:08:17;;;;;;;18.23;9.45;;;;;;;;;;5064481;28;20037;-57
2021/10/24 09:10:53;;;;;;;16.50;9.02;;;;;;;;;;5066532;28;20074;-57
2021/10/24 09:13:25;;;;;;;16.25;8.93;;;;;;;;;;5063342;28;20028;-57
2021/10/24 09:15:52;;;;;;;15.65;8.75;;;;;;;;;;5060785;28;20024;-56
2021/10/24 09:18:43;;;;;;;19.45;11.38;;;;;;;;;;5066120;28;20024;-56
2021/10/24 09:21:14;;;;;;;16.52;10.93;;;;;;;;;;5072602;28;20123;-57
2021/10/24 09:23:44;;;;;;;17.55;9.48;;;;;;;;;;5066400;28;20028;-57
2021/10/24 09:26:22;;;;;;;15.30;8.93;;;;;;;;;;5065222;28;20176;-57
2021/10/24 09:29:11;;;;;;;14.95;8.73;;;;;;;;;;5066849;28;20576;-57
2021/10/24 09:31:42;;;;;;;15.88;9.13;;;;;;;;;;5062246;28;20028;-57
2021/10/24 09:34:20;;;;;;;15.85;9.65;;;;;;;;;;5065898;28;20050;-58
2021/10/24 09:36:57;;;;;;;14.85;9.30;;;;;;;;;;5063944;28;20162;-57
2021/10/24 09:39:31;;;;;;;30.33;13.82;;;;;;;;;;5068689;28;20020;-57
2021/10/24 09:42:19;;;;;;;24.73;12.32;;;;;;;;;;5068467;28;20085;-58
2021/10/24 09:45:06;;;;;;;25.88;13.52;;;;;;;;;;5064915;28;20050;-58
2021/10/24 09:47:33;;;;;;;24.77;13.65;;;;;;;;;;5061007;28;20043;-57
2021/10/24 09:49:59;;;;;;;23.13;11.98;;;;;;;;;;5068969;28;20111;-58
2021/10/24 09:52:30;;;;;;;12.32;8.18;;;;;;;;;;5068693;28;20116;-57
2021/10/24 09:54:55;;;;;;;15.95;8.95;;;;;;;;;;5064784;28;20028;-57
2021/10/24 09:57:22;;;;;;;18.08;9.52;;;;;;;;;;5065281;28;20024;-57
2021/10/24 09:59:51;;;;;;;16.45;9.90;;;;;;;;;;5063449;28;20028;-58
2021/10/24 10:02:18;;;;;;;13.50;8.27;;;;;;;;;;5066575;28;20021;-57
2021/10/24 10:04:44;;;;;;;12.70;7.93;;;;;;;;;;5064411;28;20032;-58
2021/10/24 10:07:10;;;;;;;18.45;10.18;;;;;;;;;;5065713;28;20028;-57
2021/10/24 10:09:36;;;;;;;27.48;11.75;;;;;;;;;;5064571;28;20066;-56
2021/10/24 10:12:04;;;;;;;26.95;11.25;;;;;;;;;;5068193;28;20096;-56
2021/10/24 10:14:32;;;;;;;13.90;8.50;;;;;;;;;;5067611;28;20016;-59
2021/10/24 10:17:21;;;;;;;12.00;8.20;;;;;;;;;;5065352;28;20023;-57
2021/10/24 10:19:47;;;;;;;12.55;9.23;;;;;;;;;;5063219;28;20028;-58
2021/10/24 10:22:21;;;;;;;15.95;9.40;;;;;;;;;;5064975;28;20086;-58
2021/10/24 10:25:20;;;;;;;17.67;9.57;;;;;;;;;;5068961;28;20028;-58
2021/10/24 10:27:45;;;;;;;14.33;9.10;;;;;;;;;;5042710;28;20106;-58
2021/10/24 10:30:32;;;;;;;23.55;8.88;;;;;;;;;;5063239;28;20036;-56
2021/10/24 10:32:58;;;;;;;23.67;8.48;;;;;;;;;;5066239;28;20569;-56
2021/10/24 10:35:28;;;;;;;22.02;7.75;;;;;;;;;;5066268;28;20124;-56
2021/10/24 10:37:57;;;;;;;;;;;;;;;;;;5065856;28;20181;-56
2021/10/24 10:40:26;;;;;;;16.85;7.32;;;;;;;;;;5065045;28;19916;-57
2021/10/24 10:42:57;;;;;;;13.98;6.93;;;;;;;;;;5064949;28;20028;-57
2021/10/24 10:45:33;;;;;;;13.32;6.68;;;;;;;;;;5068466;28;20387;-56
2021/10/24 10:48:01;;;;;;;14.20;7.65;;;;;;;;;;5064789;28;20039;-57
2021/10/24 10:50:30;;;;;;;11.68;6.53;;;;;;;;;;5064582;28;20430;-57
2021/10/24 10:52:57;;;;;;;13.93;8.85;;;;;;;;;;5065590;28;20455;-58
2021/10/24 10:55:23;;;;;;;14.20;8.73;;;;;;;;;;5062788;28;20040;-58
2021/10/24 10:57:49;;;;;;;13.20;8.15;;;;;;;;;;5066351;28;20389;-58
2021/10/24 11:00:36;;;;;;;12.25;6.35;;;;;;;;;;5064702;28;20032;-57
2021/10/24 11:03:02;;;;;;;12.82;7.57;;;;;;;;;;5067150;28;20116;-57
2021/10/24 11:05:38;;;;;;;13.27;8.52;;;;;;;;;;5065464;28;20106;-59
2021/10/24 11:08:05;;;;;;;17.98;9.45;;;;;;;;;;5064153;28;20510;-56
2021/10/24 11:10:44;;;;;;;13.30;8.55;;;;;;;;;;5067415;28;20072;-57
2021/10/24 11:13:28;;;;;;;12.02;8.20;;;;;;;;;;5062988;28;20017;-57
2021/10/24 11:15:54;;;;;;;14.88;7.93;;;;;;;;;;5062249;28;20378;-57
2021/10/24 11:18:33;;;;;;;12.90;8.13;;;;;;;;;;5062245;28;20025;-57
2021/10/24 11:20:58;;;;;;;;;;;;;;;;;;5066924;28;20101;-57
2021/10/24 11:23:28;;;;;;;12.00;7.90;;;;;;;;;;5066310;28;20011;-57
2021/10/24 11:25:54;;;;;;;13.98;8.02;;;;;;;;;;5067496;28;20115;-57
2021/10/24 11:28:23;;;;;;;12.80;8.23;;;;;;;;;;5064815;28;20107;-57
2021/10/24 11:31:06;;;;;;;12.07;8.55;;;;;;;;;;5065184;28;20125;-57
2021/10/24 11:33:45;;;;;;;12.82;8.23;;;;;;;;;;5063278;28;20036;-57
2021/10/24 11:36:13;;;;;;;14.45;7.18;;;;;;;;;;5063559;28;20035;-58
2021/10/24 11:38:41;;;;;;;11.25;8.50;;;;;;;;;;5069195;28;20032;-57
2021/10/24 11:41:20;;;;;;;11.45;7.68;;;;;;;;;;5065309;28;20040;-57
2021/10/24 11:43:47;;;;;;;11.82;7.93;;;;;;;;;;5064546;28;20078;-57
2021/10/24 11:46:13;;;;;;;15.40;8.02;;;;;;;;;;5063821;28;20110;-58
2021/10/24 11:48:38;;;;;;;11.00;7.20;;;;;;;;;;5066232;28;20714;-58
2021/10/24 11:51:09;;;;;;;12.55;7.45;;;;;;;;;;5068166;28;20570;-57
2021/10/24 11:53:35;;;;;;;11.15;6.78;;;;;;;;;;5064649;28;20046;-58
2021/10/24 11:56:17;;;;;;;8.95;6.65;;;;;;;;;;5064099;28;20436;-57
2021/10/24 11:58:54;;;;;;;11.25;7.43;;;;;;;;;;5064809;28;20378;-58
2021/10/24 12:01:20;;;;;;;12.50;6.93;;;;;;;;;;5062734;28;20479;-58
2021/10/24 12:04:05;;;;;;;12.15;7.35;;;;;;;;;;5062872;28;20025;-58
2021/10/24 12:06:49;;;;;;;9.32;6.10;;;;;;;;;;5066164;28;20033;-59
2021/10/24 12:09:30;;;;;;;9.93;6.40;;;;;;;;;;5066214;28;20547;-59
2021/10/24 12:12:14;;;;;;;15.75;7.38;;;;;;;;;;5065094;28;20098;-57
2021/10/24 12:15:15;;;;;;;12.38;7.10;;;;;;;;;;5064221;28;20111;-58
2021/10/24 12:17:43;;;;;;;9.00;6.70;;;;;;;;;;5056879;28;20043;-58
2021/10/24 12:20:26;;;;;;;13.48;6.95;;;;;;;;;;5063360;28;20162;-57
2021/10/24 12:23:00;;;;;;;10.75;6.38;;;;;;;;;;5062694;28;20021;-58
2021/10/24 12:25:48;;;;;;;12.02;7.10;;;;;;;;;;5063701;28;20024;-59
2021/10/24 12:28:23;;;;;;;10.18;6.10;;;;;;;;;;5061601;28;20033;-58
2021/10/24 12:31:21;;;;;;;11.15;6.55;;;;;;;;;;5066226;28;20046;-58
2021/10/24 12:33:47;;;;;;;9.68;5.78;;;;;;;;;;5064878;28;20020;-59
2021/10/24 12:36:33;;;;;;;9.45;5.22;;;;;;;;;;5062420;28;20032;-59
2021/10/24 12:39:00;;;;;;;10.23;5.75;;;;;;;;;;5063852;28;20082;-59
2021/10/24 12:41:44;;;;;;;10.40;5.60;;;;;;;;;;5065191;28;20036;-59
2021/10/24 12:44:33;;;;;;;8.98;5.13;;;;;;;;;;5062255;28;20035;-59
2021/10/24 12:47:10;;;;;;;7.22;4.97;;;;;;;;;;5058218;28;20063;-59
2021/10/24 12:49:36;;;;;;;9.73;5.40;;;;;;;;;;5063792;28;20067;-60
2021/10/24 12:52:17;;;;;;;8.30;5.13;;;;;;;;;;5067094;28;20032;-59
2021/10/24 12:54:45;;;;;;;12.32;5.30;;;;;;;;;;5065619;28;20036;-59
2021/10/24 12:57:11;;;;;;;9.63;5.50;;;;;;;;;;5067890;28;20028;-59
2021/10/24 12:59:36;;;;;;;8.38;5.35;;;;;;;;;;5070299;28;20319;-58
2021/10/24 13:02:08;;;;;;;7.05;5.38;;;;;;;;;;5069153;28;20041;-59
2021/10/24 13:04:33;;;;;;;7.53;5.15;;;;;;;;;;5067416;28;20070;-59
2021/10/24 13:06:59;;;;;;;8.40;5.15;;;;;;;;;;5066447;28;20591;-59
2021/10/24 13:09:25;;;;;;;9.38;4.60;;;;;;;;;;5068494;28;22339;-59
2021/10/24 13:11:51;;;;;;;8.38;6.03;;;;;;;;;;5066661;28;20089;-59
2021/10/24 13:14:16;;;;;;;8.70;5.38;;;;;;;;;;5065444;28;20538;-58
2021/10/24 13:16:42;;;;;;;11.40;5.82;;;;;;;;;;5069914;28;20036;-58
2021/10/24 13:19:07;;;;;;;8.48;5.63;;;;;;;;;;5067485;28;20542;-58
2021/10/24 13:24:10;;;;;;;9.10;5.35;;;;;;;;;;5071655;28;20205;-58
2021/10/24 13:26:38;;;;;;;7.22;4.60;;;;;;;;;;5068246;28;20028;-59
2021/10/24 13:29:04;;;;;;;7.25;4.85;;;;;;;;;;5069674;28;20052;-58
2021/10/24 13:31:32;;;;;;;8.45;5.00;;;;;;;;;;5066199;28;20544;-58
2021/10/24 13:33:57;;;;;;;7.28;5.10;;;;;;;;;;5069005;28;20050;-58
2021/10/24 13:36:23;;;;;;;10.25;5.30;;;;;;;;;;5067876;28;20115;-58
2021/10/24 13:38:48;;;;;;;8.35;5.30;;;;;;;;;;5066495;28;20111;-59
2021/10/24 13:41:14;;;;;;;9.68;5.40;;;;;;;;;;5068222;28;20119;-59
2021/10/24 13:43:39;;;;;;;12.60;6.00;;;;;;;;;;5063055;28;20024;-59
2021/10/24 13:46:05;;;;;;;7.80;4.95;;;;;;;;;;5066370;28;20024;-58
2021/10/24 13:48:30;;;;;;;10.15;5.38;;;;;;;;;;5068810;28;21966;-57
2021/10/24 13:50:56;;;;;;;8.68;5.25;;;;;;;;;;5070810;28;20024;-57
2021/10/24 13:53:22;;;;;;;8.57;4.70;;;;;;;;;;5064749;28;20077;-58
2021/10/24 13:55:48;;;;;;;6.05;4.30;;;;;;;;;;5066113;28;20028;-58
2021/10/24 13:58:13;;;;;;;9.70;5.20;;;;;;;;;;5064891;28;20051;-58
2021/10/24 14:00:39;;;;;;;10.82;5.68;;;;;;;;;;5068007;28;20028;-58
2021/10/24 14:03:04;;;;;;;8.25;5.80;;;;;;;;;;5064841;28;20075;-58
2021/10/24 14:05:31;;;;;;;10.15;5.68;;;;;;;;;;5068352;28;20115;-58
2021/10/24 14:08:01;;;;;;;8.00;5.43;;;;;;;;;;5066260;28;20028;-58
2021/10/24 14:10:28;;;;;;;7.40;5.13;;;;;;;;;;5065349;28;20037;-58
2021/10/24 14:12:54;;;;;;;8.45;5.15;;;;;;;;;;5066808;28;20288;-58
2021/10/24 14:15:20;;;;;;;11.57;4.65;;;;;;;;;;5065503;28;20036;-58
2021/10/24 14:17:49;;;;;;;9.15;4.90;;;;;;;;;;5064962;28;20028;-58
2021/10/24 14:20:16;;;;;;;6.80;5.07;;;;;;;;;;5065108;28;20028;-58
2021/10/24 14:22:43;;;;;;;9.18;5.35;;;;;;;;;;5069728;28;20032;-58
2021/10/24 14:25:09;;;;;;;7.80;4.78;;;;;;;;;;5063351;28;20028;-58
2021/10/24 14:27:35;;;;;;;9.38;4.93;;;;;;;;;;5064696;28;20063;-58
2021/10/24 14:30:00;;;;;;;9.38;4.60;;;;;;;;;;5072955;28;20081;-58
2021/10/24 14:32:27;;;;;;;6.30;3.85;;;;;;;;;;5067156;28;20032;-58
2021/10/24 14:34:52;;;;;;;8.40;4.75;;;;;;;;;;5068223;28;20051;-58
2021/10/24 14:37:19;;;;;;;7.55;4.28;;;;;;;;;;5066209;28;20213;-58
2021/10/24 14:39:46;;;;;;;7.45;4.63;;;;;;;;;;5068069;28;20065;-58
2021/10/24 14:42:12;;;;;;;7.82;4.80;;;;;;;;;;5065390;28;20056;-58